createdAt,value
2017-08-06T00:08:04.504Z,0
2017-08-06T00:18:20.033Z,0
2017-08-06T00:28:34.125Z,0
2017-08-06T00:38:48.094Z,0
2017-08-06T00:49:02.290Z,0
2017-08-06T00:59:16.601Z,0
2017-08-06T01:09:32.058Z,0
2017-08-06T01:19:47.509Z,0
2017-08-06T01:30:01.583Z,0
2017-08-06T01:40:16.301Z,0
2017-08-06T01:50:30.263Z,0
2017-08-06T02:00:45.580Z,0
2017-08-06T02:10:59.584Z,0
2017-08-06T02:21:13.673Z,0
2017-08-06T02:31:28.417Z,0
2017-08-06T02:41:42.203Z,0
2017-08-06T02:51:56.019Z,0
2017-08-06T03:02:10.526Z,0
2017-08-06T03:12:25.170Z,0
2017-08-06T03:22:40.335Z,0
2017-08-06T03:32:54.239Z,16
2017-08-06T03:43:08.261Z,64
2017-08-06T03:53:23.686Z,208
2017-08-06T04:03:38.598Z,516
2017-08-06T04:13:53.627Z,988
2017-08-06T04:24:08.554Z,1560
2017-08-06T04:34:22.819Z,2160
2017-08-06T04:44:38.519Z,2736
2017-08-06T04:54:53.125Z,3320
2017-08-06T05:05:07.148Z,3660
2017-08-06T05:15:22.571Z,4000
2017-08-06T05:25:37.084Z,4488
2017-08-06T05:35:52.121Z,4800
2017-08-06T05:46:06.726Z,5392
2017-08-06T05:56:21.869Z,6324
2017-08-06T06:06:36.471Z,6884
2017-08-06T06:16:51.091Z,10980
2017-08-06T06:27:04.926Z,8940
2017-08-06T06:37:18.867Z,8028
2017-08-06T06:47:33.998Z,9396
2017-08-06T06:57:48.272Z,9208
2017-08-06T07:08:03.116Z,64256
2017-08-06T07:18:17.713Z,36640
2017-08-06T07:28:32.077Z,47392
2017-08-06T07:38:46.137Z,46496
2017-08-06T07:49:00.932Z,49632
2017-08-06T07:59:16.489Z,50304
2017-08-06T08:09:32.326Z,53568
2017-08-06T08:19:48.172Z,52128
2017-08-06T08:30:02.690Z,61344
2017-08-06T08:40:18.183Z,11536
2017-08-06T08:50:32.674Z,35552
2017-08-06T09:00:46.634Z,17840
2017-08-06T09:11:01.555Z,81888
2017-08-06T09:21:15.921Z,78048
2017-08-06T09:31:30.786Z,81728
2017-08-06T09:41:44.977Z,42624
2017-08-06T09:51:59.457Z,81280
2017-08-06T10:02:15.163Z,17292
2017-08-06T10:12:29.931Z,94336
2017-08-06T10:22:44.142Z,17144
2017-08-06T10:32:59.184Z,104256
2017-08-06T10:43:13.195Z,25344
2017-08-06T10:53:27.246Z,106240
2017-08-06T11:03:41.232Z,39840
2017-08-06T11:13:55.945Z,34048
2017-08-06T11:24:11.556Z,103744
2017-08-06T11:34:26.112Z,101376
2017-08-06T11:44:41.227Z,99104
2017-08-06T11:54:55.773Z,96384
2017-08-06T12:05:11.023Z,28832
2017-08-06T12:15:26.752Z,106784
2017-08-06T12:25:42.448Z,101440
2017-08-06T12:35:56.574Z,34656
2017-08-06T12:46:10.604Z,34144
2017-08-06T12:56:25.653Z,111200
2017-08-06T13:06:40.212Z,104448
2017-08-06T13:16:55.645Z,89760
2017-08-06T13:27:10.311Z,94912
2017-08-06T13:37:25.763Z,93152
2017-08-06T13:47:40.395Z,94304
2017-08-06T13:57:56.198Z,92640
2017-08-06T14:08:10.548Z,86784
2017-08-06T14:18:25.455Z,95520
2017-08-06T14:28:40.947Z,34752
2017-08-06T14:38:56.483Z,39360
2017-08-06T14:49:12.225Z,77664
2017-08-06T14:59:27.145Z,20000
2017-08-06T15:09:41.448Z,37888
2017-08-06T15:19:56.092Z,67296
2017-08-06T15:30:10.235Z,33216
2017-08-06T15:40:25.659Z,17680
2017-08-06T15:50:40.689Z,18592
2017-08-06T16:00:54.986Z,14572
2017-08-06T16:11:08.917Z,14440
2017-08-06T16:21:24.648Z,17728
2017-08-06T16:31:40.192Z,18720
2017-08-06T16:41:54.839Z,38592
2017-08-06T16:52:09.889Z,42048
2017-08-06T17:02:24.409Z,26240
2017-08-06T17:12:39.192Z,26304
2017-08-06T17:22:54.261Z,24960
2017-08-06T17:33:08.168Z,22048
2017-08-06T17:43:22.202Z,15808
2017-08-06T17:53:37.124Z,7292
2017-08-06T18:03:52.103Z,6224
2017-08-06T18:14:05.960Z,4768
2017-08-06T18:24:20.573Z,4000
2017-08-06T18:34:36.264Z,2880
2017-08-06T18:44:50.375Z,1928
2017-08-06T18:55:05.259Z,1092
2017-08-06T19:05:20.453Z,540
2017-08-06T19:15:35.176Z,224
2017-08-06T19:25:50.190Z,76
2017-08-06T19:36:05.907Z,20
2017-08-06T19:46:20.470Z,4
2017-08-06T19:56:35.261Z,0
2017-08-06T20:06:50.970Z,0
2017-08-06T20:17:06.360Z,0
2017-08-06T20:27:21.395Z,0
2017-08-06T20:37:35.976Z,0
2017-08-06T20:47:50.867Z,0
2017-08-06T20:58:06.278Z,0
2017-08-06T21:08:20.973Z,0
2017-08-06T21:18:34.992Z,0
2017-08-06T21:28:50.407Z,0
2017-08-06T21:39:05.124Z,0
2017-08-06T21:49:20.191Z,0
2017-08-06T21:59:35.124Z,0
2017-08-06T22:09:49.578Z,0
2017-08-06T22:20:03.761Z,0
2017-08-06T22:30:17.578Z,0
2017-08-06T22:40:31.776Z,0
2017-08-06T22:50:47.243Z,0
2017-08-06T23:01:02.719Z,0
2017-08-06T23:11:17.986Z,0
2017-08-06T23:21:33.421Z,0
2017-08-06T23:31:47.627Z,0
2017-08-06T23:42:03.192Z,0
2017-08-06T23:52:16.958Z,0
